Time;durP1;ratioP1;P1;durP2;ratioP2;P2;SDS_P1;SDS_P2;PMS_P1;PMS_P2;Temp;Humidity;BMP_temperature;BMP_pressure;BME280_temperature;BME280_humidity;BME280_pressure;Samples;Min_cycle;Max_cycle;Signal;HPM_P1;HPM_P2
2021/04/27 00:00:44;;;;;;;6.13;2.20;;;;;;;4.13;36.69;97584.13;10471962;28;20479;-74
2021/04/27 00:06:05;;;;;;;5.35;2.17;;;;;;;4.16;36.85;97578.25;10485420;28;20141;-75
2021/04/27 00:11:25;;;;;;;4.93;2.35;;;;;;;4.15;37.59;97585.06;10471298;28;20040;-74
2021/04/27 00:16:46;;;;;;;5.15;2.08;;;;;;;4.15;37.14;97579.53;10457256;28;20044;-74
2021/04/27 00:22:07;;;;;;;5.47;2.45;;;;;;;4.10;38.00;97580.47;10470936;28;20048;-74
2021/04/27 00:27:28;;;;;;;6.05;2.40;;;;;;;4.07;38.50;97583.59;10470818;28;20043;-75
2021/04/27 00:32:49;;;;;;;5.40;2.60;;;;;;;4.02;37.65;97577.69;10470449;28;20115;-74
2021/04/27 00:38:09;;;;;;;5.28;2.38;;;;;;;3.95;38.90;97569.41;10470624;28;20044;-74
2021/04/27 00:43:30;;;;;;;6.55;2.40;;;;;;;3.90;38.58;97567.59;10470009;28;20376;-74
2021/04/27 00:48:50;;;;;;;6.45;2.83;;;;;;;3.89;38.62;97571.66;10483606;28;20041;-74
2021/04/27 00:54:12;;;;;;;7.68;2.60;;;;;;;3.86;39.42;97558.94;10455958;28;20036;-74
2021/04/27 00:59:32;;;;;;;7.70;2.63;;;;;;;3.85;38.78;97554.69;10469668;28;20051;-74
2021/04/27 01:04:54;;;;;;;6.32;2.83;;;;;;;3.77;39.87;97540.94;10455067;28;20045;-74
2021/04/27 01:10:15;;;;;;;5.35;2.47;;;;;;;3.75;39.40;97551.75;10462943;28;20044;-74
2021/04/27 01:15:35;;;;;;;7.20;2.90;;;;;;;3.72;39.91;97545.34;10469225;28;20062;-74
2021/04/27 01:21:01;;;;;;;;;;;;;;;3.68;40.25;97553.25;10456729;28;20049;-74
2021/04/27 01:26:51;;;;;;;8.73;2.72;;;;;;;3.62;39.24;97547.19;10455269;28;19924;-74
2021/04/27 01:32:11;;;;;;;8.75;2.67;;;;;;;3.53;39.52;97536.69;10482575;28;20041;-74
2021/04/27 01:37:32;;;;;;;4.82;2.55;;;;;;;3.46;40.63;97542.94;10482423;28;20041;-74
2021/04/27 01:42:52;;;;;;;5.93;2.78;;;;;;;3.41;40.33;97532.84;10468502;28;20533;-74
2021/04/27 01:48:13;;;;;;;6.22;2.47;;;;;;;3.35;40.25;97527.50;10468154;28;20170;-74
2021/04/27 01:53:34;;;;;;;7.22;2.80;;;;;;;3.30;40.53;97527.69;10440620;28;20052;-74
2021/04/27 01:58:56;;;;;;;7.43;2.60;;;;;;;3.23;40.68;97525.66;10469031;28;20036;-74
2021/04/27 02:04:28;;;;;;;6.65;2.47;;;;;;;3.22;41.54;97526.94;10452902;28;20476;-74
2021/04/27 02:10:12;;;;;;;6.57;3.13;;;;;;;3.17;41.68;97531.34;10456208;28;20060;-74
2021/04/27 02:15:34;;;;;;;10.45;3.25;;;;;;;3.16;41.79;97530.59;10475833;28;20494;-74
2021/04/27 02:20:57;;;;;;;7.32;2.65;;;;;;;3.08;41.39;97524.34;10462071;28;20045;-74
2021/04/27 02:26:41;;;;;;;5.45;2.60;;;;;;;3.01;41.39;97530.59;10462602;28;20110;-74
2021/04/27 02:32:13;;;;;;;5.68;2.67;;;;;;;2.96;42.70;97517.69;10478038;28;20391;-74
2021/04/27 02:37:37;;;;;;;6.05;2.63;;;;;;;2.92;43.00;97519.34;10462258;28;20044;-74
2021/04/27 02:43:06;;;;;;;6.70;2.88;;;;;;;2.87;42.79;97512.72;10463498;28;20098;-74
2021/04/27 02:48:37;;;;;;;10.10;2.83;;;;;;;2.85;42.66;97512.53;10463554;28;20045;-74
2021/04/27 02:54:05;;;;;;;4.95;2.78;;;;;;;2.81;43.14;97506.66;10462263;28;20098;-75
2021/04/27 02:59:26;;;;;;;7.78;2.92;;;;;;;2.81;43.60;97504.63;10468972;28;20134;-74
2021/04/27 03:04:48;;;;;;;7.32;3.08;;;;;;;2.76;43.24;97502.03;10474671;28;20037;-74
2021/04/27 03:10:12;;;;;;;8.30;2.67;;;;;;;2.68;43.96;97507.53;10460835;28;20387;-74
2021/04/27 03:15:33;;;;;;;6.75;2.60;;;;;;;2.62;43.34;97498.72;10472893;28;20048;-74
2021/04/27 03:20:54;;;;;;;10.75;3.20;;;;;;;2.62;43.80;97506.25;10473582;28;20041;-74
2021/04/27 03:26:21;;;;;;;8.43;2.95;;;;;;;2.54;43.38;97495.94;10473818;28;20044;-74
2021/04/27 03:31:57;;;;;;;9.93;3.28;;;;;;;2.47;44.20;97499.38;10475177;28;20051;-74
2021/04/27 03:37:18;;;;;;;7.63;3.10;;;;;;;2.44;44.59;97497.72;10473072;28;20390;-74
2021/04/27 03:42:39;;;;;;;6.28;3.00;;;;;;;2.45;44.78;97495.72;10472861;28;20376;-74
2021/04/27 03:48:11;;;;;;;9.15;3.40;;;;;;;2.42;44.60;97494.78;10459132;28;20479;-74
2021/04/27 03:53:38;;;;;;;12.82;3.33;;;;;;;2.46;44.52;97506.19;10474941;28;20044;-74
2021/04/27 03:59:04;;;;;;;8.50;3.38;;;;;;;2.44;45.25;97502.50;10473273;28;20113;-74
2021/04/27 04:04:26;;;;;;;7.03;3.00;;;;;;;2.44;45.80;97502.50;10471997;28;20051;-74
2021/04/27 04:10:10;;;;;;;7.65;2.88;;;;;;;2.46;45.75;97499.94;10466293;28;20118;-74
2021/04/27 04:15:30;;;;;;;6.57;3.25;;;;;;;2.56;44.95;97509.88;10457044;28;20040;-74
2021/04/27 04:20:52;;;;;;;10.95;3.55;;;;;;;2.64;45.22;97514.69;10457433;28;20119;-75
2021/04/27 04:26:38;;;;;;;8.57;3.63;;;;;;;2.71;46.12;97514.72;10467414;28;20056;-75
2021/04/27 04:32:34;;;;;;;6.78;2.92;;;;;;;2.78;45.84;97516.00;10393186;28;20048;-75
2021/04/27 04:38:18;;;;;;;9.27;3.58;;;;;;;2.91;45.69;97518.63;10465316;28;20041;-74
2021/04/27 04:44:02;;;;;;;9.40;2.90;;;;;;;3.16;45.19;97525.09;10477153;28;20427;-75
2021/04/27 04:50:01;;;;;;;6.88;3.60;;;;;;;3.40;45.82;97526.59;10436042;28;20042;-75
2021/04/27 04:55:45;;;;;;;7.32;3.50;;;;;;;3.71;45.57;97532.81;10486016;28;20048;-75
2021/04/27 05:01:13;;;;;;;8.23;3.67;;;;;;;3.97;44.88;97533.72;10458062;28;20044;-74
2021/04/27 05:06:45;;;;;;;8.98;3.90;;;;;;;4.29;44.46;97541.38;10473112;28;20445;-75
2021/04/27 05:12:44;;;;;;;9.52;3.63;;;;;;;4.81;43.73;97536.91;10233217;29;20054;-75
2021/04/27 05:18:08;;;;;;;11.07;3.33;;;;;;;5.53;43.29;97551.97;10445276;28;20061;-75
2021/04/27 05:23:28;;;;;;;7.55;3.60;;;;;;;7.07;41.04;97555.34;10469635;28;20040;-75
2021/04/27 05:28:49;;;;;;;7.22;3.50;;;;;;;14.04;43.73;97558.91;10469094;28;20037;-75
2021/04/27 05:34:10;;;;;;;8.18;3.65;;;;;;;21.12;31.73;97565.56;10469165;28;20041;-74
2021/04/27 05:39:31;;;;;;;7.75;2.90;;;;;;;26.46;23.81;97567.50;10468307;28;20044;-76
2021/04/27 05:44:51;;;;;;;8.13;3.03;;;;;;;30.29;16.35;97561.81;10468721;28;20049;-74
2021/04/27 05:50:13;;;;;;;10.35;3.20;;;;;;;32.30;11.79;97575.69;10468427;28;20048;-75
2021/04/27 05:55:35;;;;;;;8.15;3.28;;;;;;;34.26;9.66;97565.66;10469103;28;20041;-73
2021/04/27 06:00:56;;;;;;;5.95;2.88;;;;;;;35.79;8.13;97566.47;10468990;28;20051;-76
2021/04/27 06:06:26;;;;;;;7.18;2.80;;;;;;;37.37;7.06;97576.38;10471095;28;20048;-74
2021/04/27 06:11:46;;;;;;;8.52;3.30;;;;;;;38.74;5.79;97562.94;10454210;28;20044;-75
2021/04/27 06:17:06;;;;;;;6.57;2.75;;;;;;;39.95;4.83;97567.00;10468046;28;20059;-74
2021/04/27 06:22:27;;;;;;;4.32;2.80;;;;;;;38.23;5.19;97555.88;10454360;28;20048;-76
2021/04/27 06:27:48;;;;;;;6.55;2.58;;;;;;;39.00;4.44;97555.09;10467951;28;20044;-75
2021/04/27 06:33:08;;;;;;;6.57;2.70;;;;;;;39.85;4.31;97555.88;10451358;28;20436;-75
2021/04/27 06:38:32;;;;;;;6.95;2.67;;;;;;;40.64;3.94;97544.31;10468790;28;20497;-75
2021/04/27 06:43:53;;;;;;;6.25;2.80;;;;;;;40.76;3.61;97550.19;10467784;28;20102;-75
2021/04/27 06:49:13;;;;;;;5.70;2.67;;;;;;;41.23;3.77;97546.78;10471082;28;20063;-75
2021/04/27 06:54:36;;;;;;;7.05;2.53;;;;;;;41.36;3.58;97542.31;10488694;28;20044;-75
2021/04/27 06:59:57;;;;;;;4.93;2.90;;;;;;;42.12;2.97;97543.63;10488817;28;20438;-76
2021/04/27 07:05:17;;;;;;;4.60;2.60;;;;;;;41.92;3.07;97539.72;10473502;28;20110;-75
2021/04/27 07:10:38;;;;;;;9.02;2.50;;;;;;;39.74;3.67;97522.88;10488038;28;20399;-74
2021/04/27 07:15:58;;;;;;;7.32;2.33;;;;;;;40.68;3.75;97520.69;10460209;28;20111;-77
2021/04/27 07:21:20;;;;;;;6.30;2.40;;;;;;;41.97;3.11;97523.97;10458751;28;20407;-79
2021/04/27 07:26:41;;;;;;;5.65;2.38;;;;;;;42.77;2.85;97516.00;10460202;28;20426;-76
2021/04/27 07:32:01;;;;;;;5.63;2.22;;;;;;;43.29;2.33;97508.13;10473198;28;20513;-76
2021/04/27 07:37:22;;;;;;;8.10;2.63;;;;;;;43.11;2.33;97515.94;10473255;28;20044;-78
2021/04/27 07:42:43;;;;;;;4.88;2.33;;;;;;;41.49;2.50;97515.22;10472858;28;20399;-82
2021/04/27 07:48:05;;;;;;;3.70;2.15;;;;;;;42.74;2.38;97497.81;10472858;28;20037;-78
2021/04/27 07:53:26;;;;;;;3.50;1.95;;;;;;;42.32;2.31;97491.78;10472996;28;20106;-78
2021/04/27 07:58:47;;;;;;;4.18;2.08;;;;;;;42.57;2.40;97497.50;10444472;28;20090;-78
2021/04/27 08:04:07;;;;;;;6.30;1.75;;;;;;;41.69;2.77;97497.16;10468847;28;20032;-78
2021/04/27 08:09:27;;;;;;;5.57;1.75;;;;;;;40.60;2.85;97486.75;10468424;28;20064;-76
2021/04/27 08:14:48;;;;;;;8.85;1.90;;;;;;;41.93;2.63;97500.09;10452294;28;20043;-78
2021/04/27 08:20:10;;;;;;;4.78;1.48;;;;;;;40.87;2.84;97500.59;10416469;28;20059;-78
2021/04/27 08:25:32;;;;;;;6.10;1.85;;;;;;;41.51;2.61;97494.63;10444031;28;20040;-78
2021/04/27 08:30:52;;;;;;;4.10;1.50;;;;;;;40.98;2.56;97494.84;10430163;28;20048;-76
2021/04/27 08:36:14;;;;;;;3.65;1.73;;;;;;;40.00;3.02;97491.56;10416355;28;20053;-78
2021/04/27 08:41:34;;;;;;;5.00;1.65;;;;;;;41.47;2.90;97477.97;10415710;28;20491;-77
2021/04/27 08:46:55;;;;;;;7.47;1.55;;;;;;;40.72;2.60;97483.13;10429285;28;20045;-78
2021/04/27 08:52:16;;;;;;;2.72;1.33;;;;;;;41.89;2.48;97488.63;10429198;28;20041;-78
2021/04/27 08:57:37;;;;;;;4.53;1.50;;;;;;;40.20;2.42;97475.81;10414964;28;20102;-79
2021/04/27 09:03:02;;;;;;;3.17;1.40;;;;;;;41.53;2.26;97459.34;10428823;28;20106;-77
2021/04/27 09:08:39;;;;;;;8.40;1.73;;;;;;;41.95;2.08;97470.63;10441905;28;20122;-78
2021/04/27 09:14:21;;;;;;;4.57;1.95;;;;;;;41.02;2.60;97451.41;10428317;28;20061;-78
2021/04/27 09:19:53;;;;;;;4.00;1.40;;;;;;;39.31;2.89;97452.13;10428293;28;20040;-75
2021/04/27 09:25:14;;;;;;;5.53;1.80;;;;;;;40.87;2.86;97453.75;10442208;28;20392;-76
2021/04/27 09:30:36;;;;;;;4.60;1.90;;;;;;;40.88;2.55;97441.25;10457328;28;20044;-77
2021/04/27 09:35:56;;;;;;;5.50;1.40;;;;;;;41.39;2.33;97437.47;10464138;28;20086;-76
2021/04/27 09:41:16;;;;;;;5.55;1.70;;;;;;;42.28;2.00;97439.97;10455054;28;20044;-74
2021/04/27 09:46:37;;;;;;;3.30;1.52;;;;;;;41.26;2.49;97436.81;10454882;28;20044;-77
2021/04/27 09:51:58;;;;;;;3.30;1.52;;;;;;;41.47;2.33;97425.97;10455039;28;20052;-75
2021/04/27 09:57:37;;;;;;;5.65;1.80;;;;;;;39.79;2.76;97433.53;10468837;28;20532;-81
2021/04/27 10:03:11;;;;;;;2.78;1.50;;;;;;;41.34;2.59;97413.63;10482359;28;20048;-84
2021/04/27 10:08:32;;;;;;;4.65;1.30;;;;;;;41.03;2.86;97399.44;10456792;28;20102;-75
2021/04/27 10:13:55;;;;;;;4.03;1.50;;;;;;;39.97;2.88;97417.91;10468912;28;20063;-76
2021/04/27 10:19:15;;;;;;;4.65;1.70;;;;;;;41.42;2.59;97394.84;10441051;28;20479;-77
2021/04/27 10:24:36;;;;;;;6.88;1.77;;;;;;;40.18;2.97;97393.41;10459585;28;20098;-78
2021/04/27 10:30:30;;;;;;;;;;;;;;;39.41;2.92;97380.81;10476124;28;20048;-77
2021/04/27 10:36:10;;;;;;;3.47;1.48;;;;;;;37.78;3.45;97362.78;10464878;28;19974;-78
2021/04/27 10:41:52;;;;;;;3.58;1.65;;;;;;;30.64;6.35;97369.81;10475277;28;20052;-76
2021/04/27 10:47:17;;;;;;;3.30;1.83;;;;;;;27.10;8.41;97351.28;10488957;28;20040;-77
2021/04/27 10:52:41;;;;;;;6.43;2.42;;;;;;;24.98;9.82;97349.72;10475100;28;20051;-76
2021/04/27 10:58:04;;;;;;;4.53;1.80;;;;;;;23.91;10.95;97339.00;10475581;28;20036;-77
2021/04/27 11:03:53;;;;;;;6.82;2.15;;;;;;;22.00;12.44;97326.66;10476803;28;20055;-76
2021/04/27 11:09:15;;;;;;;9.40;2.30;;;;;;;21.09;13.03;97348.41;10430833;28;20472;-77
2021/04/27 11:14:35;;;;;;;6.50;2.25;;;;;;;19.64;14.75;97335.91;10440870;28;20056;-76
2021/04/27 11:19:56;;;;;;;4.68;1.92;;;;;;;19.61;14.60;97328.75;10443594;28;20060;-75
2021/04/27 11:25:32;;;;;;;5.65;2.22;;;;;;;19.64;15.49;97316.09;10440493;28;20412;-74
2021/04/27 11:30:53;;;;;;;5.45;2.35;;;;;;;18.88;15.79;97309.78;10441134;28;20044;-76
2021/04/27 11:36:14;;;;;;;6.13;2.80;;;;;;;18.20;16.85;97312.00;10406518;28;20168;-78
2021/04/27 11:41:48;;;;;;;4.65;2.38;;;;;;;17.33;18.25;97298.59;10419449;28;20060;-76
2021/04/27 11:47:19;;;;;;;7.05;2.88;;;;;;;17.24;18.53;97302.50;10427688;28;20041;-75
2021/04/27 11:53:02;;;;;;;6.25;2.40;;;;;;;17.60;18.00;97283.25;10403456;28;20036;-75
2021/04/27 11:58:38;;;;;;;6.95;2.42;;;;;;;17.55;18.39;97281.66;10437880;28;20029;-75
2021/04/27 12:03:59;;;;;;;3.78;2.45;;;;;;;17.32;18.76;97275.28;10428892;28;20045;-75
2021/04/27 12:09:19;;;;;;;7.82;3.22;;;;;;;17.05;18.86;97270.84;10442149;28;20123;-74
2021/04/27 12:14:54;;;;;;;5.70;2.55;;;;;;;17.26;18.58;97263.78;10483508;28;20476;-76
2021/04/27 12:20:17;;;;;;;5.25;2.90;;;;;;;17.50;18.61;97263.19;10480629;28;20048;-76
2021/04/27 12:25:38;;;;;;;6.82;3.05;;;;;;;17.46;18.42;97270.13;10485237;28;20037;-77
2021/04/27 12:30:58;;;;;;;5.97;2.50;;;;;;;17.62;18.46;97255.81;10484726;28;20067;-76
2021/04/27 12:36:19;;;;;;;5.40;2.83;;;;;;;17.35;18.77;97248.59;10469674;28;20075;-76
2021/04/27 12:41:41;;;;;;;6.07;3.10;;;;;;;16.99;19.11;97248.09;10469927;28;20505;-77
2021/04/27 12:47:23;;;;;;;6.38;2.75;;;;;;;16.60;19.68;97238.25;10481065;28;20483;-76
2021/04/27 12:53:01;;;;;;;5.22;2.80;;;;;;;17.05;19.59;97233.47;10482066;28;20449;-77
2021/04/27 12:58:26;;;;;;;5.97;3.35;;;;;;;17.15;19.14;97219.72;10467470;28;20047;-78
2021/04/27 13:03:59;;;;;;;6.90;3.10;;;;;;;17.14;19.19;97224.63;10469624;28;20438;-76
2021/04/27 13:09:27;;;;;;;6.50;3.20;;;;;;;16.75;19.34;97202.88;10485368;28;20078;-76
2021/04/27 13:14:52;;;;;;;5.43;2.88;;;;;;;16.83;19.78;97208.06;10471026;28;20056;-76
2021/04/27 13:20:42;;;;;;;6.40;3.00;;;;;;;16.19;19.97;97207.88;10471733;28;20040;-77
2021/04/27 13:26:08;;;;;;;6.97;3.00;;;;;;;16.05;20.51;97206.63;10430554;28;20115;-78
2021/04/27 13:31:28;;;;;;;5.03;2.55;;;;;;;16.22;20.58;97188.97;10412976;28;20045;-77
2021/04/27 13:36:58;;;;;;;4.35;2.88;;;;;;;16.08;20.49;97182.81;10416541;28;20456;-75
2021/04/27 13:42:22;;;;;;;8.15;3.33;;;;;;;16.15;20.54;97173.94;10426416;28;20488;-75
2021/04/27 13:48:11;;;;;;;6.55;3.25;;;;;;;15.91;21.41;97167.41;10433627;28;20143;-77
2021/04/27 13:54:53;;;;;;;5.28;3.45;;;;;;;15.80;21.04;97154.31;10434378;28;20044;-75
2021/04/27 14:01:28;;;;;;;4.93;3.30;;;;;;;15.58;21.43;97160.53;10491123;28;20377;-75
2021/04/27 14:07:24;;;;;;;9.80;3.25;;;;;;;15.16;22.39;97151.88;10493031;28;20052;-76
2021/04/27 14:12:49;;;;;;;5.80;3.30;;;;;;;14.97;22.19;97143.34;10493452;28;20047;-75
2021/04/27 14:19:52;;;;;;;8.55;3.20;;;;;;;14.71;23.03;97135.28;10477277;28;20329;-76
2021/04/27 14:27:27;;;;;;;5.97;3.55;;;;;;;14.73;23.37;97137.44;10497044;28;20052;-75
2021/04/27 14:33:48;;;;;;;5.88;3.28;;;;;;;14.79;23.44;97138.41;10496551;28;20498;-75
2021/04/27 14:48:05;;;;;;;6.03;3.45;;;;;;;14.24;23.79;97118.50;10496334;28;20044;-77
2021/04/27 15:03:01;;;;;;;8.40;3.15;;;;;;;14.64;23.48;97108.28;10539878;28;20478;-81
2021/04/27 15:08:21;;;;;;;5.90;2.90;;;;;;;14.31;23.75;97100.56;10489723;28;20048;-77
2021/04/27 15:13:42;;;;;;;4.18;3.15;;;;;;;14.04;24.17;97096.63;10450005;28;20040;-77
2021/04/27 15:19:03;;;;;;;7.95;3.42;;;;;;;13.77;24.23;97094.00;10476803;28;20479;-77
2021/04/27 15:24:22;;;;;;;7.40;3.47;;;;;;;13.75;24.43;97082.69;10464432;28;20051;-76
2021/04/27 15:29:43;;;;;;;8.13;3.35;;;;;;;13.88;24.43;97086.75;10478905;28;20037;-76
2021/04/27 15:35:04;;;;;;;6.53;3.05;;;;;;;13.95;24.31;97069.56;10478064;28;20456;-78
2021/04/27 15:40:27;;;;;;;11.75;3.25;;;;;;;13.92;24.34;97056.81;10478518;28;20040;-77
2021/04/27 15:45:47;;;;;;;7.10;3.35;;;;;;;13.84;24.44;97064.88;10464357;28;20067;-75
2021/04/27 15:51:09;;;;;;;4.97;3.17;;;;;;;13.50;24.65;97060.53;10461162;28;20044;-75
2021/04/27 15:56:30;;;;;;;5.13;3.20;;;;;;;13.38;24.97;97055.09;10473345;28;20094;-74
2021/04/27 16:01:51;;;;;;;5.90;2.83;;;;;;;13.39;24.85;97048.13;10474052;28;20098;-73
2021/04/27 16:07:12;;;;;;;7.95;3.72;;;;;;;13.37;25.37;97051.56;10458551;28;20057;-73
2021/04/27 16:12:33;;;;;;;6.88;3.45;;;;;;;13.33;25.37;97042.25;10471990;28;20399;-74
2021/04/27 16:17:53;;;;;;;7.90;3.53;;;;;;;13.12;25.10;97043.34;10457651;28;20048;-73
2021/04/27 16:23:14;;;;;;;6.07;3.00;;;;;;;13.08;25.49;97043.19;10485149;28;20056;-73
2021/04/27 16:28:34;;;;;;;5.93;3.53;;;;;;;13.07;25.41;97034.06;10471460;28;20384;-73
2021/04/27 16:33:56;;;;;;;7.35;3.63;;;;;;;13.02;25.43;97026.09;10470911;28;20036;-73
2021/04/27 16:39:17;;;;;;;8.25;3.80;;;;;;;12.95;25.71;97018.78;10471120;28;20079;-72
2021/04/27 16:44:38;;;;;;;8.02;3.53;;;;;;;12.90;25.75;97010.16;10456550;28;20051;-73
2021/04/27 16:49:58;;;;;;;7.43;3.50;;;;;;;12.80;25.77;97012.50;10484445;28;20497;-74
2021/04/27 16:55:19;;;;;;;6.18;3.47;;;;;;;12.76;25.83;97020.00;10483806;28;20048;-73
2021/04/27 17:00:44;;;;;;;10.40;3.72;;;;;;;12.62;26.29;97014.41;10456789;28;20044;-73
2021/04/27 17:06:05;;;;;;;7.95;3.38;;;;;;;12.55;26.28;97018.31;10469926;28;20056;-73
2021/04/27 17:11:25;;;;;;;9.05;3.72;;;;;;;12.41;25.83;97017.59;10469579;28;20045;-73
2021/04/27 17:16:46;;;;;;;12.15;3.67;;;;;;;12.25;26.22;97026.63;10469426;28;20045;-74
2021/04/27 17:22:07;;;;;;;8.02;3.45;;;;;;;12.26;25.92;97010.59;10455556;28;20044;-73
2021/04/27 17:27:27;;;;;;;6.15;3.90;;;;;;;12.15;26.44;97026.13;10455393;28;20048;-73
2021/04/27 17:32:47;;;;;;;6.57;3.60;;;;;;;12.03;26.60;97022.75;10454409;28;20045;-74
2021/04/27 17:38:09;;;;;;;7.47;4.20;;;;;;;11.86;26.54;97020.47;10483095;28;20542;-74
2021/04/27 17:43:29;;;;;;;4.93;3.63;;;;;;;11.80;26.43;97022.97;10455305;28;20411;-74
2021/04/27 17:48:50;;;;;;;7.30;3.40;;;;;;;11.65;26.85;97027.78;10496716;28;20048;-74
2021/04/27 17:54:10;;;;;;;5.93;3.42;;;;;;;11.58;26.83;97026.03;10468768;28;20041;-74
2021/04/27 17:59:33;;;;;;;6.55;3.78;;;;;;;11.44;26.98;97036.47;10468677;28;20391;-72
2021/04/27 18:04:54;;;;;;;12.85;3.42;;;;;;;11.30;26.94;97044.09;10482452;28;20064;-74
2021/04/27 18:10:15;;;;;;;7.55;3.25;;;;;;;11.20;27.05;97035.91;10468512;28;20055;-73
2021/04/27 18:15:36;;;;;;;6.95;3.38;;;;;;;11.05;27.58;97028.09;10482317;28;20044;-74
2021/04/27 18:20:56;;;;;;;6.10;3.35;;;;;;;10.95;27.43;97058.28;10468219;28;20044;-72
2021/04/27 18:26:17;;;;;;;7.07;2.90;;;;;;;10.82;27.95;97032.47;10454178;28;20116;-73
2021/04/27 18:31:37;;;;;;;4.88;3.25;;;;;;;10.75;27.87;97050.22;10467842;28;20356;-74
2021/04/27 18:36:58;;;;;;;7.00;2.92;;;;;;;10.62;27.57;97039.00;10453892;28;20472;-75
2021/04/27 18:42:19;;;;;;;8.93;3.20;;;;;;;10.53;28.21;97046.94;10468577;28;20396;-74
2021/04/27 18:47:43;;;;;;;6.38;3.30;;;;;;;10.45;28.01;97040.16;10488841;28;20049;-75
2021/04/27 18:53:03;;;;;;;6.43;3.00;;;;;;;10.35;28.15;97047.94;10474830;28;20102;-75
2021/04/27 18:58:24;;;;;;;8.63;3.53;;;;;;;10.24;28.35;97052.94;10460542;28;20037;-76
2021/04/27 19:03:44;;;;;;;7.70;3.47;;;;;;;10.18;28.38;97060.22;10474401;28;20033;-75
2021/04/27 19:09:05;;;;;;;7.53;3.70;;;;;;;10.11;28.40;97061.19;10460481;28;20067;-75
2021/04/27 19:14:25;;;;;;;6.90;3.47;;;;;;;10.03;28.44;97055.84;10473897;28;20430;-75
2021/04/27 19:19:47;;;;;;;12.38;3.80;;;;;;;9.98;28.67;97049.31;10473847;28;20037;-75
2021/04/27 19:25:09;;;;;;;9.38;3.90;;;;;;;9.86;28.49;97056.97;10473322;28;20488;-75
2021/04/27 19:30:29;;;;;;;7.13;3.88;;;;;;;9.78;28.83;97062.06;10487350;28;20044;-74
2021/04/27 19:35:49;;;;;;;7.63;3.85;;;;;;;9.68;28.75;97069.84;10486956;28;20541;-75
2021/04/27 19:41:10;;;;;;;6.85;3.70;;;;;;;9.55;29.19;97065.56;10486619;28;20060;-74
2021/04/27 19:46:33;;;;;;;10.45;3.88;;;;;;;9.44;29.56;97064.22;10473154;28;20067;-74
2021/04/27 19:51:54;;;;;;;7.57;4.10;;;;;;;9.37;29.66;97065.22;10500099;28;20040;-76
2021/04/27 19:57:16;;;;;;;9.45;4.32;;;;;;;9.29;29.50;97059.13;10472484;28;20369;-76
2021/04/27 20:02:53;;;;;;;6.90;4.35;;;;;;;9.18;29.68;97054.28;10465032;28;20045;-74
2021/04/27 20:08:14;;;;;;;8.00;4.22;;;;;;;9.15;29.81;97061.03;10464560;28;20048;-75
2021/04/27 20:13:35;;;;;;;7.50;4.72;;;;;;;9.00;30.29;97059.44;10457482;28;20041;-75
2021/04/27 20:18:55;;;;;;;10.80;4.60;;;;;;;8.96;30.22;97066.81;10457650;28;20036;-76
2021/04/27 20:24:26;;;;;;;11.43;4.78;;;;;;;8.91;30.43;97073.44;10473203;28;20052;-75
2021/04/27 20:29:47;;;;;;;9.90;4.68;;;;;;;8.81;30.57;97073.53;10471162;28;20399;-75
2021/04/27 20:35:09;;;;;;;11.10;5.22;;;;;;;8.74;30.93;97071.69;10462896;28;20098;-75
2021/04/27 20:40:30;;;;;;;7.90;4.78;;;;;;;8.64;30.90;97074.56;10485160;28;20056;-75
2021/04/27 20:45:50;;;;;;;10.20;5.10;;;;;;;8.53;31.27;97067.63;10470281;28;20048;-75
2021/04/27 20:51:11;;;;;;;11.40;6.22;;;;;;;8.45;32.45;97074.72;10470169;28;20090;-75
2021/04/27 20:56:35;;;;;;;10.25;4.85;;;;;;;8.38;31.80;97081.91;10469852;28;20036;-74
2021/04/27 21:01:57;;;;;;;14.27;5.87;;;;;;;8.32;32.29;97079.47;10456155;28;20041;-75
2021/04/27 21:07:18;;;;;;;11.23;5.18;;;;;;;8.28;32.52;97087.53;10469068;28;20495;-75
2021/04/27 21:12:38;;;;;;;10.13;5.05;;;;;;;8.23;32.15;97085.81;10482505;28;20468;-75
2021/04/27 21:18:02;;;;;;;11.27;5.47;;;;;;;8.18;32.71;97089.63;10444670;28;20033;-75
2021/04/27 21:23:23;;;;;;;9.37;5.27;;;;;;;8.15;32.58;97093.63;10471292;28;20056;-75
2021/04/27 21:28:43;;;;;;;12.85;6.55;;;;;;;8.08;33.26;97091.75;10434746;28;20040;-75
2021/04/27 21:34:03;;;;;;;15.00;6.15;;;;;;;7.97;32.91;97081.28;10482633;28;20044;-75
2021/04/27 21:39:24;;;;;;;11.32;5.97;;;;;;;7.88;33.34;97085.56;10469172;28;20041;-75
2021/04/27 21:44:44;;;;;;;11.57;5.72;;;;;;;7.79;33.69;97088.41;10468834;28;20479;-75
2021/04/27 21:50:07;;;;;;;11.07;5.93;;;;;;;7.69;33.70;97089.16;10455376;28;20126;-75
2021/04/27 21:55:27;;;;;;;11.68;5.97;;;;;;;7.65;33.87;97086.13;10482485;28;20036;-75
2021/04/27 22:00:47;;;;;;;11.05;5.70;;;;;;;7.57;34.18;97095.94;10454387;28;20047;-75
2021/04/27 22:06:08;;;;;;;11.35;6.22;;;;;;;7.45;34.45;97093.06;10454436;28;20064;-74
2021/04/27 22:11:28;;;;;;;11.48;6.10;;;;;;;7.40;34.55;97089.28;10454739;28;20049;-74
2021/04/27 22:16:49;;;;;;;9.75;6.32;;;;;;;7.35;34.97;97090.31;10468469;28;20041;-75
2021/04/27 22:22:09;;;;;;;11.00;6.38;;;;;;;7.27;34.84;97087.00;10476257;28;20048;-75
2021/04/27 22:27:30;;;;;;;9.55;6.05;;;;;;;7.22;34.83;97081.72;10489727;28;20048;-75
2021/04/27 22:32:50;;;;;;;13.00;6.43;;;;;;;7.15;34.93;97086.88;10461795;28;20399;-75
2021/04/27 22:38:11;;;;;;;12.75;6.60;;;;;;;7.10;35.20;97079.56;10475403;28;20052;-74
2021/04/27 22:43:31;;;;;;;11.73;5.82;;;;;;;7.05;35.07;97086.16;10488927;28;20044;-75
2021/04/27 22:48:52;;;;;;;11.02;6.57;;;;;;;7.05;35.38;97086.16;10475266;28;20041;-75
2021/04/27 22:54:12;;;;;;;12.52;7.05;;;;;;;7.02;35.35;97084.53;10460994;28;20037;-75
2021/04/27 22:59:32;;;;;;;10.15;6.82;;;;;;;6.99;35.64;97080.19;10474984;28;20064;-75
2021/04/27 23:04:53;;;;;;;12.15;6.60;;;;;;;6.97;35.43;97080.03;10460563;28;20426;-75
2021/04/27 23:10:13;;;;;;;9.43;6.22;;;;;;;7.00;35.21;97075.34;10474424;28;20044;-75
2021/04/27 23:15:34;;;;;;;10.77;6.50;;;;;;;7.15;35.18;97080.59;10487945;28;20040;-75
2021/04/27 23:20:54;;;;;;;10.00;6.22;;;;;;;7.26;35.06;97079.25;10474058;28;20059;-75
2021/04/27 23:26:15;;;;;;;9.23;6.00;;;;;;;7.38;35.21;97069.69;10473910;28;20055;-75
2021/04/27 23:31:40;;;;;;;;;;;;;;;7.54;34.79;97074.91;10473373;28;20479;-74
2021/04/27 23:37:00;;;;;;;10.40;5.88;;;;;;;7.55;34.66;97060.44;10487032;28;19924;-74
2021/04/27 23:42:22;;;;;;;10.43;5.90;;;;;;;7.51;35.12;97062.94;10459633;28;20037;-75
2021/04/27 23:47:43;;;;;;;11.38;5.85;;;;;;;7.44;34.70;97061.06;10472975;28;20040;-75
2021/04/27 23:53:03;;;;;;;13.02;6.22;;;;;;;7.35;35.12;97048.69;10458856;28;20399;-75
2021/04/27 23:58:28;;;;;;;9.55;6.00;;;;;;;7.24;35.28;97054.09;10458696;28;20115;-75
